MPH weather

Godofredo P. Ramos Airport
Malay, Aklan Province, Philippines

Public forecast

Using degrees Celsius for public forecast. Weather courtesy of forecast.io.

Closest aviation weather report (METAR) to Godofredo P. Ramos Airport

Report is more than 6 hours old.

Closest report is Kalibo International Airport, 28.8 nm (53.4 km) ESE. Retrieved 2020/02/16 13:00 UTC (1 day ago):

RPVK 161300Z 34008KT 9999 FEW020 BKN100 26/22 Q1015 NOSIG RMK A2997

Closest aviation forecast (TAF) to Godofredo P. Ramos Airport

Forecast is more than 12 hours old.

Closest forecast is Kalibo International Airport, 28.8 nm (53.4 km) ESE. Retrieved 2020/02/12 12:19 UTC (5 days ago):

TAF RPVK 121100Z 1212/1312 06010KT 9999 FEW016 SCT240 TEMPO 1212/1218 08012KT -SHRA SCT016 BKN070